Time;durP1;ratioP1;P1;durP2;ratioP2;P2;SDS_P1;SDS_P2;PMS_P1;PMS_P2;Temp;Humidity;BMP_temperature;BMP_pressure;BME280_temperature;BME280_humidity;BME280_pressure;Samples;Min_cycle;Max_cycle;Signal;HPM_P1;HPM_P2
2022/06/28 00:00:28;;;;;;;3.70;1.20;;;20.10;99.90;;;;;;7392698;19;20146;-74
2022/06/28 00:02:54;;;;;;;2.15;0.80;;;20.20;99.90;;;;;;7394722;19;20143;-76
2022/06/28 00:05:20;;;;;;;0.90;0.90;;;20.30;99.90;;;;;;7398220;19;20126;-77
2022/06/28 00:07:47;;;;;;;1.63;0.85;;;20.10;99.90;;;;;;7394435;19;20134;-78
2022/06/28 00:10:14;;;;;;;2.05;0.95;;;19.90;99.90;;;;;;7393923;19;20175;-73
2022/06/28 00:12:40;;;;;;;1.48;1.05;;;20.00;99.90;;;;;;7398524;19;20150;-76
2022/06/28 00:17:54;;;;;;;0.80;0.70;;;20.20;99.90;;;;;;7395108;19;20206;-73
2022/06/28 00:20:20;;;;;;;1.27;1.00;;;20.20;99.90;;;;;;7397810;19;20257;-72
2022/06/28 00:22:46;;;;;;;1.33;0.90;;;20.00;99.90;;;;;;7396800;19;20169;-77
2022/06/28 00:25:11;;;;;;;2.33;0.90;;;19.70;99.90;;;;;;7394338;19;20122;-73
2022/06/28 00:27:38;;;;;;;2.35;0.70;;;19.90;99.90;;;;;;7396348;19;20150;-77
2022/06/28 00:30:05;;;;;;;1.25;1.00;;;20.00;99.90;;;;;;7393863;19;20138;-76
2022/06/28 00:32:32;;;;;;;1.90;0.80;;;20.10;99.90;;;;;;7396375;19;20126;-73
2022/06/28 00:34:59;;;;;;;0.73;0.73;;;20.00;99.90;;;;;;7391922;19;20135;-76
2022/06/28 00:37:26;;;;;;;1.42;0.75;;;20.20;99.90;;;;;;7393308;19;20150;-73
2022/06/28 00:39:52;;;;;;;2.35;0.85;;;20.10;99.90;;;;;;7397863;19;20134;-76
2022/06/28 00:42:18;;;;;;;1.17;0.80;;;20.10;99.90;;;;;;7391983;19;20135;-72
2022/06/28 00:44:44;;;;;;;1.65;0.90;;;20.20;99.90;;;;;;7394120;19;20123;-72
2022/06/28 00:47:10;;;;;;;1.40;0.70;;;20.40;99.90;;;;;;7396756;19;20123;-77
2022/06/28 00:49:40;;;;;;;1.02;0.82;;;20.30;99.90;;;;;;7393857;19;20146;-73
2022/06/28 00:52:06;;;;;;;2.47;2.15;;;20.30;99.90;;;;;;7393518;19;20140;-77
2022/06/28 00:54:32;;;;;;;0.60;0.60;;;20.30;99.90;;;;;;7390961;19;20149;-75
2022/06/28 00:56:59;;;;;;;0.73;0.60;;;20.10;99.90;;;;;;7394332;19;20486;-76
2022/06/28 00:59:25;;;;;;;1.02;0.77;;;20.10;99.90;;;;;;7395069;19;20231;-74
2022/06/28 01:01:50;;;;;;;1.50;0.70;;;20.20;99.90;;;;;;7393935;19;20273;-73
2022/06/28 01:04:16;;;;;;;3.47;0.70;;;20.20;99.90;;;;;;7393132;19;20590;-73
2022/06/28 01:06:42;;;;;;;0.68;0.68;;;20.10;99.90;;;;;;7395482;19;20145;-77
2022/06/28 01:09:08;;;;;;;0.50;0.50;;;20.20;99.90;;;;;;7393634;19;20126;-76
2022/06/28 01:11:34;;;;;;;0.80;0.75;;;20.20;99.90;;;;;;7393849;19;20134;-77
2022/06/28 01:14:06;;;;;;;1.13;0.82;;;20.10;99.90;;;;;;7392967;19;20163;-73
2022/06/28 01:16:32;;;;;;;1.55;0.70;;;19.90;99.90;;;;;;7393449;19;20126;-76
2022/06/28 01:18:58;;;;;;;0.82;0.60;;;19.90;99.90;;;;;;7389854;19;20143;-74
2022/06/28 01:21:27;;;;;;;2.13;0.60;;;19.50;99.90;;;;;;7391652;19;20241;-77
2022/06/28 01:23:54;;;;;;;0.90;0.60;;;19.40;99.90;;;;;;7391360;19;20150;-73
2022/06/28 01:26:20;;;;;;;0.52;0.52;;;19.60;99.90;;;;;;7389548;19;20139;-74
2022/06/28 01:28:48;;;;;;;1.88;0.60;;;19.20;99.90;;;;;;7395728;19;20532;-77
2022/06/28 01:31:15;;;;;;;1.45;0.60;;;19.40;99.90;;;;;;7392641;19;20169;-76
2022/06/28 01:33:41;;;;;;;0.70;0.70;;;19.50;99.90;;;;;;7392221;19;20606;-73
2022/06/28 01:36:08;;;;;;;1.20;1.02;;;19.80;99.90;;;;;;7387981;19;20138;-76
2022/06/28 01:38:35;;;;;;;0.98;0.80;;;20.00;99.90;;;;;;7393396;19;20138;-73
2022/06/28 01:41:01;;;;;;;1.75;0.95;;;20.10;99.90;;;;;;7390262;19;20159;-73
2022/06/28 01:43:29;;;;;;;0.70;0.60;;;20.10;99.90;;;;;;7391329;19;20158;-76
2022/06/28 01:45:56;;;;;;;3.45;0.80;;;20.00;99.90;;;;;;7391906;19;20150;-73
2022/06/28 01:48:22;;;;;;;1.70;0.68;;;20.00;99.90;;;;;;7393214;19;20602;-74
2022/06/28 01:50:49;;;;;;;1.80;0.60;;;20.00;99.90;;;;;;7390469;19;20214;-76
2022/06/28 01:53:15;;;;;;;1.52;0.70;;;20.10;99.90;;;;;;7392646;19;20739;-77
2022/06/28 01:55:42;;;;;;;0.75;0.75;;;20.10;99.90;;;;;;7390858;19;20142;-74
2022/06/28 01:58:09;;;;;;;1.15;0.77;;;19.90;99.90;;;;;;7391295;19;20155;-76
2022/06/28 02:00:35;;;;;;;0.80;0.60;;;19.90;99.90;;;;;;7386354;19;20162;-76
2022/06/28 02:03:01;;;;;;;0.80;0.80;;;20.10;99.90;;;;;;7392813;19;20178;-76
2022/06/28 02:05:27;;;;;;;2.78;0.70;;;20.10;99.90;;;;;;7393251;19;20142;-76
2022/06/28 02:07:55;;;;;;;1.05;0.90;;;20.20;99.90;;;;;;7391931;19;20185;-76
2022/06/28 02:10:21;;;;;;;4.25;0.77;;;20.20;99.90;;;;;;7389376;19;20187;-73
2022/06/28 02:12:47;;;;;;;1.25;0.80;;;20.20;99.90;;;;;;7394246;19;20143;-73
2022/06/28 02:15:13;;;;;;;1.52;0.85;;;20.10;99.90;;;;;;7391480;19;20138;-74
2022/06/28 02:17:40;;;;;;;0.80;0.80;;;20.10;99.90;;;;;;7392858;19;20138;-73
2022/06/28 02:20:06;;;;;;;0.98;0.60;;;20.10;99.90;;;;;;7391054;19;20530;-76
2022/06/28 02:22:32;;;;;;;4.50;0.75;;;20.20;99.90;;;;;;7391829;19;20137;-72
2022/06/28 02:24:58;;;;;;;1.25;0.80;;;20.20;99.90;;;;;;7390275;19;20214;-73
2022/06/28 02:27:24;;;;;;;1.63;0.60;;;20.20;99.90;;;;;;7391469;19;20479;-76
2022/06/28 02:29:50;;;;;;;1.45;0.60;;;20.00;99.90;;;;;;7391884;19;20143;-73
2022/06/28 02:32:16;;;;;;;2.08;0.73;;;20.00;99.90;;;;;;7389441;19;20669;-73
2022/06/28 02:40:24;;;;;;;4.97;0.90;;;20.00;99.90;;;;;;7393526;19;20150;-73
2022/06/28 02:42:52;;;;;;;0.75;0.70;;;20.00;99.90;;;;;;7393580;19;20149;-77
2022/06/28 02:45:19;;;;;;;1.35;0.80;;;20.00;99.90;;;;;;7388700;19;20139;-73
2022/06/28 02:47:45;;;;;;;1.30;1.00;;;20.00;99.90;;;;;;7391039;19;20187;-76
2022/06/28 02:50:11;;;;;;;1.10;0.88;;;19.80;99.90;;;;;;7390979;19;20155;-73
2022/06/28 02:52:37;;;;;;;0.95;0.85;;;19.70;99.90;;;;;;7391278;19;20126;-72
2022/06/28 02:55:03;;;;;;;0.80;0.80;;;19.80;99.90;;;;;;7391354;19;20146;-76
2022/06/28 02:57:29;;;;;;;0.68;0.68;;;19.80;99.90;;;;;;7392387;19;20165;-73
2022/06/28 02:59:55;;;;;;;1.40;0.80;;;19.60;99.90;;;;;;7388498;19;20139;-76
2022/06/28 03:02:21;;;;;;;1.60;0.70;;;19.70;99.90;;;;;;7389686;19;20608;-77
2022/06/28 03:04:47;;;;;;;3.83;0.80;;;19.70;99.90;;;;;;7388113;19;20169;-73
2022/06/28 03:07:13;;;;;;;0.77;0.70;;;19.60;99.90;;;;;;7387726;19;20498;-77
2022/06/28 03:09:38;;;;;;;1.15;0.82;;;19.70;99.90;;;;;;7392240;19;20601;-73
2022/06/28 03:12:06;;;;;;;0.75;0.70;;;19.60;99.90;;;;;;7390205;19;20525;-77
2022/06/28 03:14:32;;;;;;;0.88;0.73;;;19.50;99.90;;;;;;7390885;19;20143;-76
2022/06/28 03:16:59;;;;;;;0.60;0.60;;;19.50;99.90;;;;;;7389254;19;20155;-72
2022/06/28 03:19:25;;;;;;;2.65;0.73;;;19.00;99.90;;;;;;7391721;19;20139;-76
2022/06/28 03:21:50;;;;;;;0.70;0.70;;;19.00;99.90;;;;;;7386524;19;20193;-73
2022/06/28 03:24:16;;;;;;;0.80;0.70;;;19.10;99.90;;;;;;7390311;19;20143;-76
2022/06/28 03:26:42;;;;;;;0.90;0.90;;;19.10;99.90;;;;;;7389641;19;20134;-76
2022/06/28 03:29:08;;;;;;;0.95;0.80;;;19.20;99.90;;;;;;7390360;19;20146;-73
2022/06/28 03:31:34;;;;;;;0.80;0.70;;;19.30;99.90;;;;;;7391634;19;20146;-76
2022/06/28 03:34:00;;;;;;;4.65;1.00;;;19.50;99.90;;;;;;7397232;19;20163;-77
2022/06/28 03:36:26;;;;;;;2.13;0.82;;;19.60;99.90;;;;;;7395641;19;20135;-73
2022/06/28 03:38:52;;;;;;;1.33;0.90;;;19.70;99.90;;;;;;7396065;19;20134;-73
2022/06/28 03:41:26;;;;;;;1.95;0.93;;;19.80;99.90;;;;;;7397692;19;20234;-72
2022/06/28 03:43:53;;;;;;;1.48;0.90;;;19.70;99.90;;;;;;7395656;19;20202;-77
2022/06/28 03:46:19;;;;;;;1.05;0.95;;;19.60;99.90;;;;;;7397035;19;20205;-76
2022/06/28 03:48:46;;;;;;;1.17;0.95;;;19.60;99.90;;;;;;7394890;19;20134;-76
2022/06/28 03:51:12;;;;;;;1.63;1.20;;;19.40;99.90;;;;;;7396720;19;20481;-76
2022/06/28 03:53:39;;;;;;;1.73;1.10;;;19.50;99.90;;;;;;7394548;19;20598;-72
2022/06/28 03:56:05;;;;;;;1.02;0.93;;;19.60;99.90;;;;;;7395490;19;20161;-72
2022/06/28 03:58:32;;;;;;;1.65;1.30;;;19.70;99.90;;;;;;7394725;19;20143;-73
2022/06/28 04:00:57;;;;;;;3.30;1.10;;;19.70;99.90;;;;;;7398379;19;20141;-77
2022/06/28 04:03:23;;;;;;;0.98;0.70;;;19.70;99.90;;;;;;7392786;19;20541;-74
2022/06/28 04:05:49;;;;;;;1.85;1.10;;;19.60;99.90;;;;;;7394210;19;20149;-77
2022/06/28 04:08:15;;;;;;;0.85;0.85;;;19.60;99.90;;;;;;7396476;19;20138;-77
2022/06/28 04:10:41;;;;;;;2.95;1.50;;;19.60;99.90;;;;;;7394362;19;20150;-77
2022/06/28 04:13:07;;;;;;;6.25;2.75;;;19.60;99.90;;;;;;7395376;19;20617;-73
2022/06/28 04:15:34;;;;;;;2.03;1.60;;;19.70;99.90;;;;;;7395525;19;20840;-78
2022/06/28 04:18:01;;;;;;;1.60;1.48;;;19.70;99.90;;;;;;7394296;19;20221;-78
2022/06/28 04:20:27;;;;;;;2.67;1.30;;;19.60;99.90;;;;;;7389202;19;20170;-78
2022/06/28 04:22:52;;;;;;;1.13;1.02;;;19.60;99.90;;;;;;7392864;19;20158;-78
2022/06/28 04:25:18;;;;;;;1.52;1.13;;;19.70;99.90;;;;;;7390783;19;20162;-78
2022/06/28 04:27:44;;;;;;;1.75;1.10;;;19.80;99.90;;;;;;7396109;19;20151;-78
2022/06/28 04:30:11;;;;;;;2.15;1.20;;;19.80;99.90;;;;;;7394107;19;20158;-78
2022/06/28 04:32:37;;;;;;;1.98;1.02;;;19.80;99.90;;;;;;7398245;19;20151;-73
2022/06/28 04:35:03;;;;;;;1.45;0.98;;;19.60;99.90;;;;;;7393869;19;20134;-77
2022/06/28 04:37:29;;;;;;;2.38;1.20;;;19.70;99.90;;;;;;7393131;19;20135;-73
2022/06/28 04:39:54;;;;;;;1.02;0.98;;;19.70;99.90;;;;;;7395103;19;20551;-72
2022/06/28 04:42:20;;;;;;;6.43;1.17;;;19.80;99.90;;;;;;7394160;19;20151;-73
2022/06/28 04:44:46;;;;;;;3.08;1.10;;;19.70;99.90;;;;;;7392057;19;20639;-73
2022/06/28 04:47:12;;;;;;;1.92;1.13;;;19.70;99.90;;;;;;7394763;19;20143;-79
2022/06/28 04:49:38;;;;;;;2.22;1.10;;;19.70;99.90;;;;;;7394647;19;20161;-75
2022/06/28 04:52:04;;;;;;;2.17;1.33;;;19.60;99.90;;;;;;7394069;19;20134;-81
2022/06/28 04:54:31;;;;;;;1.25;1.15;;;19.60;99.90;;;;;;7391670;19;20127;-78
2022/06/28 04:56:57;;;;;;;3.00;1.45;;;19.60;99.90;;;;;;7393578;19;20126;-73
2022/06/28 04:59:22;;;;;;;1.63;1.50;;;19.70;99.90;;;;;;7394309;19;20494;-79
2022/06/28 05:01:48;;;;;;;2.15;1.67;;;19.70;99.90;;;;;;7394456;19;20127;-77
2022/06/28 05:04:14;;;;;;;2.55;2.35;;;19.70;99.90;;;;;;7391311;19;20189;-74
2022/06/28 05:06:40;;;;;;;1.92;1.65;;;19.70;99.90;;;;;;7392391;19;20653;-74
2022/06/28 05:09:06;;;;;;;1.75;1.50;;;19.50;99.90;;;;;;7391287;19;20126;-72
2022/06/28 05:11:32;;;;;;;3.70;1.38;;;19.60;99.90;;;;;;7395489;19;20172;-72
2022/06/28 05:13:59;;;;;;;2.67;1.80;;;19.60;99.90;;;;;;7387220;19;20142;-73
2022/06/28 05:16:25;;;;;;;2.33;1.75;;;19.60;99.90;;;;;;7394077;19;20158;-81
2022/06/28 05:18:50;;;;;;;2.65;2.45;;;19.60;99.90;;;;;;7396616;19;20139;-80
2022/06/28 05:21:16;;;;;;;2.33;2.13;;;19.70;99.90;;;;;;7390690;19;20146;-80
2022/06/28 05:23:42;;;;;;;2.45;2.25;;;19.70;99.90;;;;;;7390658;19;20193;-73
2022/06/28 05:26:08;;;;;;;1.98;1.67;;;19.70;99.90;;;;;;7395028;19;20142;-81
2022/06/28 05:28:34;;;;;;;5.40;2.60;;;19.70;99.90;;;;;;7394278;19;20144;-81
2022/06/28 05:31:00;;;;;;;2.83;2.47;;;19.70;99.90;;;;;;7389510;19;20218;-75
2022/06/28 05:33:26;;;;;;;4.35;3.10;;;19.60;99.90;;;;;;7392991;19;20148;-82
2022/06/28 05:35:52;;;;;;;4.55;2.85;;;19.60;99.90;;;;;;7393701;19;20146;-74
2022/06/28 05:38:18;;;;;;;2.60;2.40;;;19.60;99.90;;;;;;7391076;19;20134;-81
2022/06/28 05:40:44;;;;;;;6.28;3.42;;;19.70;99.90;;;;;;7394218;19;20138;-82
2022/06/28 05:43:09;;;;;;;4.40;2.95;;;19.70;99.90;;;;;;7395942;19;20127;-75
2022/06/28 05:45:35;;;;;;;4.85;3.10;;;19.80;99.90;;;;;;7394103;19;20123;-75
2022/06/28 05:48:01;;;;;;;3.15;2.70;;;19.80;99.90;;;;;;7396051;19;20161;-78
2022/06/28 05:50:27;;;;;;;6.10;2.83;;;19.70;99.90;;;;;;7390257;19;20895;-74
2022/06/28 05:52:54;;;;;;;6.65;3.22;;;19.70;99.90;;;;;;7394827;19;20907;-74
2022/06/28 05:55:20;;;;;;;3.25;2.95;;;19.70;99.90;;;;;;7388900;19;20213;-73
2022/06/28 05:57:46;;;;;;;4.75;3.35;;;19.70;99.90;;;;;;7392518;19;20590;-74
2022/06/28 06:00:13;;;;;;;4.47;2.70;;;19.80;99.90;;;;;;7389349;19;20170;-75
2022/06/28 06:02:39;;;;;;;4.68;3.67;;;19.80;99.90;;;;;;7392747;19;20544;-79
2022/06/28 06:05:06;;;;;;;6.70;3.45;;;19.90;99.90;;;;;;7392207;19;20126;-81
2022/06/28 06:07:32;;;;;;;5.47;3.63;;;20.00;99.90;;;;;;7395310;19;20142;-73
2022/06/28 06:09:58;;;;;;;3.72;3.40;;;20.00;99.90;;;;;;7391520;19;20473;-81
2022/06/28 06:12:24;;;;;;;3.88;3.20;;;20.00;99.90;;;;;;7392314;19;20158;-74
2022/06/28 06:14:49;;;;;;;3.97;3.63;;;20.10;99.90;;;;;;7388908;19;20130;-75
2022/06/28 06:17:15;;;;;;;5.72;3.30;;;20.00;99.90;;;;;;7393229;19;20138;-81
2022/06/28 06:19:41;;;;;;;4.95;3.53;;;20.00;99.90;;;;;;7393056;19;20135;-80
2022/06/28 06:22:07;;;;;;;3.83;3.50;;;20.00;99.90;;;;;;7389880;19;20154;-72
2022/06/28 06:24:33;;;;;;;3.90;3.50;;;20.10;99.90;;;;;;7386246;19;20159;-73
2022/06/28 06:26:58;;;;;;;6.53;3.72;;;20.10;99.90;;;;;;7388128;19;20158;-80
2022/06/28 06:29:25;;;;;;;4.78;3.00;;;20.20;99.90;;;;;;7389907;19;20617;-75
2022/06/28 06:31:51;;;;;;;11.07;3.72;;;20.30;99.90;;;;;;7389110;19;20246;-73
2022/06/28 06:34:17;;;;;;;3.78;3.47;;;20.30;99.90;;;;;;7390813;19;20212;-78
2022/06/28 06:36:45;;;;;;;4.28;3.20;;;20.30;99.90;;;;;;7390031;19;20122;-79
2022/06/28 06:39:10;;;;;;;3.78;3.47;;;20.30;99.90;;;;;;7387911;19;20146;-77
2022/06/28 06:41:37;;;;;;;3.58;3.25;;;20.20;99.90;;;;;;7390046;19;20146;-77
2022/06/28 06:44:03;;;;;;;8.48;3.63;;;20.20;99.90;;;;;;7384524;19;20138;-77
2022/06/28 06:46:29;;;;;;;3.55;2.78;;;20.10;99.90;;;;;;7389162;19;20142;-78
2022/06/28 06:48:55;;;;;;;4.05;3.30;;;20.10;99.90;;;;;;7389039;19;20151;-73
2022/06/28 06:51:21;;;;;;;6.00;3.83;;;20.10;99.90;;;;;;7391433;19;20150;-78
2022/06/28 06:53:46;;;;;;;3.42;3.05;;;20.20;99.90;;;;;;7388613;19;20242;-73
2022/06/28 06:56:12;;;;;;;4.70;3.05;;;20.10;99.90;;;;;;7388593;19;20153;-73
2022/06/28 06:58:39;;;;;;;3.90;3.40;;;20.10;99.90;;;;;;7392284;19;20149;-79
2022/06/28 07:01:05;;;;;;;3.50;3.17;;;20.20;99.90;;;;;;7382973;19;20919;-79
2022/06/28 07:03:34;;;;;;;4.68;3.30;;;20.30;99.90;;;;;;7387989;19;20728;-74
2022/06/28 07:06:00;;;;;;;3.72;3.05;;;20.30;99.90;;;;;;7388799;19;20146;-72
2022/06/28 07:08:25;;;;;;;3.58;3.22;;;20.20;99.90;;;;;;7390837;19;20146;-74
2022/06/28 07:10:51;;;;;;;5.03;3.50;;;20.20;99.90;;;;;;7386710;19;20141;-79
2022/06/28 07:13:17;;;;;;;5.10;3.78;;;20.10;99.90;;;;;;7386148;19;20534;-76
2022/06/28 07:15:43;;;;;;;3.80;3.08;;;20.20;99.90;;;;;;7386270;19;20242;-78
2022/06/28 07:18:09;;;;;;;5.00;3.47;;;20.00;99.90;;;;;;7389864;19;20314;-79
2022/06/28 07:20:35;;;;;;;3.92;3.55;;;20.00;99.90;;;;;;7387093;19;20588;-73
2022/06/28 07:23:00;;;;;;;3.50;3.20;;;20.00;99.90;;;;;;7388633;19;20163;-74
2022/06/28 07:25:26;;;;;;;4.25;3.85;;;20.00;99.90;;;;;;7385901;19;20142;-74
2022/06/28 07:27:52;;;;;;;3.83;3.38;;;20.10;99.90;;;;;;7386790;19;20149;-74
2022/06/28 07:30:18;;;;;;;5.28;3.50;;;20.10;99.90;;;;;;7388704;19;20151;-74
2022/06/28 07:32:44;;;;;;;3.70;3.38;;;20.20;99.90;;;;;;7388491;19;20141;-79
2022/06/28 07:35:10;;;;;;;4.10;3.67;;;20.20;99.90;;;;;;7388810;19;20785;-80
2022/06/28 07:37:36;;;;;;;7.05;4.07;;;20.40;99.90;;;;;;7386393;19;20143;-78
2022/06/28 07:40:04;;;;;;;6.70;3.75;;;20.40;99.90;;;;;;7385798;19;20149;-73
2022/06/28 07:42:30;;;;;;;4.70;3.75;;;20.40;99.90;;;;;;7387408;19;20150;-79
2022/06/28 07:44:56;;;;;;;5.90;4.10;;;20.40;99.90;;;;;;7382357;19;20149;-78
2022/06/28 07:47:22;;;;;;;5.25;3.70;;;20.30;99.90;;;;;;7388154;19;20171;-73
2022/06/28 07:52:37;;;;;;;4.07;3.40;;;20.20;99.90;;;;;;7387555;19;20146;-79
2022/06/28 07:55:08;;;;;;;3.83;3.53;;;20.40;99.90;;;;;;7387820;19;20142;-75
2022/06/28 07:57:35;;;;;;;3.97;3.58;;;20.40;99.90;;;;;;7385720;19;20146;-78
2022/06/28 08:00:01;;;;;;;3.70;3.40;;;20.50;99.90;;;;;;7385746;19;20230;-76
2022/06/28 08:02:28;;;;;;;4.25;3.30;;;20.80;99.90;;;;;;7388214;19;20143;-73
2022/06/28 08:04:54;;;;;;;3.97;3.35;;;21.20;99.90;;;;;;7384962;19;20642;-75
2022/06/28 08:07:20;;;;;;;3.55;3.22;;;21.60;99.90;;;;;;7389154;19;20679;-77
2022/06/28 08:09:46;;;;;;;5.10;3.25;;;21.80;99.90;;;;;;7385844;19;20146;-79
2022/06/28 08:12:12;;;;;;;4.63;3.45;;;21.90;99.90;;;;;;7387931;19;20146;-73
2022/06/28 08:14:37;;;;;;;3.90;3.50;;;21.90;99.90;;;;;;7385704;19;20153;-80
2022/06/28 08:17:04;;;;;;;4.70;3.90;;;22.10;99.90;;;;;;7388282;19;20138;-79
2022/06/28 08:19:30;;;;;;;6.85;3.20;;;22.10;99.90;;;;;;7398223;19;20483;-79
2022/06/28 08:21:55;;;;;;;4.85;3.42;;;21.90;99.90;;;;;;7394656;19;20169;-80
2022/06/28 08:24:21;;;;;;;5.10;3.80;;;22.10;99.90;;;;;;7394915;19;20150;-73
2022/06/28 08:26:47;;;;;;;4.80;4.22;;;22.40;99.90;;;;;;7392779;19;20190;-72
2022/06/28 08:29:15;;;;;;;3.35;3.05;;;23.00;99.90;;;;;;7392440;19;20210;-73
2022/06/28 08:31:42;;;;;;;3.20;2.90;;;23.10;99.90;;;;;;7390347;19;20138;-74
2022/06/28 08:34:08;;;;;;;3.15;2.35;;;23.20;99.90;;;;;;7394824;19;20139;-78
2022/06/28 08:36:34;;;;;;;2.90;2.33;;;23.20;99.90;;;;;;7392925;19;20581;-80
2022/06/28 08:39:01;;;;;;;5.45;3.00;;;23.10;99.90;;;;;;7391957;19;20150;-80
2022/06/28 08:41:30;;;;;;;2.75;2.55;;;22.90;99.90;;;;;;7395788;19;20147;-79
2022/06/28 08:43:56;;;;;;;4.38;2.53;;;23.10;99.90;;;;;;7393679;19;20158;-79
2022/06/28 08:46:24;;;;;;;2.17;2.00;;;23.50;99.90;;;;;;7394833;19;20588;-73
2022/06/28 08:49:01;;;;;;;2.47;2.28;;;23.50;99.90;;;;;;7393922;19;20138;-77
2022/06/28 08:51:30;;;;;;;3.05;2.28;;;23.20;99.90;;;;;;7395041;19;20221;-73
2022/06/28 08:53:58;;;;;;;2.25;2.05;;;23.40;99.90;;;;;;7393100;19;20235;-79
2022/06/28 08:56:25;;;;;;;2.20;2.00;;;23.70;99.90;;;;;;7390419;19;20172;-73
2022/06/28 08:58:51;;;;;;;2.25;2.00;;;23.50;99.90;;;;;;7391053;19;20621;-79
2022/06/28 09:01:17;;;;;;;2.25;2.05;;;23.70;99.90;;;;;;7391335;19;20139;-73
2022/06/28 09:03:43;;;;;;;2.42;2.22;;;23.70;99.90;;;;;;7393698;19;20182;-80
2022/06/28 09:06:09;;;;;;;3.75;3.20;;;23.40;99.90;;;;;;7391986;19;20142;-73
2022/06/28 09:08:35;;;;;;;2.28;2.08;;;23.40;99.90;;;;;;7392422;19;20546;-79
2022/06/28 09:11:01;;;;;;;3.05;1.70;;;23.30;99.90;;;;;;7390236;19;20137;-73
2022/06/28 09:13:27;;;;;;;1.75;1.65;;;23.10;99.90;;;;;;7392662;19;20139;-73
2022/06/28 09:16:00;;;;;;;2.20;1.60;;;23.30;99.90;;;;;;7393112;19;20177;-74
2022/06/28 09:18:27;;;;;;;1.70;1.60;;;23.10;99.90;;;;;;7393323;19;20131;-79
2022/06/28 09:20:56;;;;;;;2.85;2.08;;;23.20;99.90;;;;;;7390286;19;20154;-75
2022/06/28 09:23:31;;;;;;;2.08;1.65;;;23.10;99.90;;;;;;7390214;19;20149;-78
2022/06/28 09:26:09;;;;;;;2.25;1.80;;;22.90;99.90;;;;;;7395707;19;20134;-79
2022/06/28 09:28:43;;;;;;;3.22;1.70;;;22.70;99.90;;;;;;7390394;19;20175;-80
2022/06/28 09:31:22;;;;;;;1.70;1.60;;;22.70;99.90;;;;;;7392340;19;20135;-79
2022/06/28 09:34:01;;;;;;;1.65;1.50;;;23.00;99.90;;;;;;7391536;19;20150;-75
2022/06/28 09:36:28;;;;;;;3.15;1.60;;;23.10;99.90;;;;;;7390391;19;20155;-79
2022/06/28 09:38:56;;;;;;;1.90;1.35;;;23.30;99.90;;;;;;7388301;19;20154;-80
2022/06/28 09:41:28;;;;;;;2.25;1.95;;;23.40;99.90;;;;;;7391502;19;20162;-74
2022/06/28 09:43:55;;;;;;;1.50;1.40;;;23.40;99.90;;;;;;7389265;19;20157;-80
2022/06/28 09:46:23;;;;;;;5.18;2.05;;;23.30;99.90;;;;;;7389346;19;20158;-74
2022/06/28 09:48:49;;;;;;;1.40;1.30;;;23.30;99.90;;;;;;7393208;19;20141;-74
2022/06/28 09:51:23;;;;;;;1.40;1.30;;;23.40;99.90;;;;;;7391929;19;20527;-79
2022/06/28 09:53:52;;;;;;;3.17;1.40;;;23.60;99.90;;;;;;7390970;19;20674;-74
2022/06/28 09:56:21;;;;;;;1.52;1.30;;;23.60;99.90;;;;;;7388295;19;20214;-79
2022/06/28 09:58:48;;;;;;;3.00;1.30;;;23.50;99.90;;;;;;7389420;19;20175;-75
2022/06/28 10:01:14;;;;;;;1.40;1.20;;;23.50;99.90;;;;;;7393865;19;20135;-74
2022/06/28 10:03:40;;;;;;;2.13;1.38;;;23.70;99.90;;;;;;7388450;19;20161;-79
2022/06/28 10:06:06;;;;;;;1.38;1.27;;;23.70;99.90;;;;;;7389197;19;20130;-80
2022/06/28 10:08:33;;;;;;;1.55;1.38;;;23.80;99.90;;;;;;7389663;19;20127;-80
2022/06/28 10:10:59;;;;;;;1.55;1.23;;;23.60;99.90;;;;;;7388736;19;20142;-75
2022/06/28 10:16:10;;;;;;;3.58;1.65;;;23.80;99.90;;;;;;7388899;19;20135;-80
2022/06/28 10:18:36;;;;;;;1.65;1.48;;;23.70;99.90;;;;;;7391473;19;20230;-72
2022/06/28 10:21:02;;;;;;;2.15;1.90;;;23.60;99.90;;;;;;7389162;19;20154;-74
2022/06/28 10:23:42;;;;;;;3.85;1.70;;;23.40;99.90;;;;;;7394272;19;20146;-79
2022/06/28 10:26:18;;;;;;;2.72;1.63;;;23.50;99.90;;;;;;7387999;19;20258;-74
2022/06/28 10:28:59;;;;;;;1.95;1.75;;;23.70;99.90;;;;;;7389315;19;20186;-79
2022/06/28 10:31:25;;;;;;;1.70;1.60;;;23.70;99.90;;;;;;7391608;19;20512;-77
2022/06/28 10:33:56;;;;;;;3.65;1.77;;;23.70;99.90;;;;;;7392300;19;20150;-73
2022/06/28 10:36:24;;;;;;;2.65;2.10;;;23.80;99.90;;;;;;7392082;19;20155;-79
2022/06/28 10:39:08;;;;;;;1.67;1.58;;;24.00;99.90;;;;;;7388186;19;20243;-74
2022/06/28 10:41:40;;;;;;;1.67;1.35;;;24.00;99.90;;;;;;7392157;19;20161;-74
2022/06/28 10:44:15;;;;;;;1.40;1.30;;;24.10;99.90;;;;;;7389566;19;20214;-73
2022/06/28 10:47:09;;;;;;;1.27;1.17;;;24.30;99.90;;;;;;7393963;19;20130;-80
2022/06/28 10:49:44;;;;;;;1.30;1.20;;;24.40;99.90;;;;;;7388926;19;20149;-80
2022/06/28 10:52:28;;;;;;;2.17;1.30;;;24.40;99.90;;;;;;7388492;19;20608;-81
2022/06/28 10:54:57;;;;;;;2.13;1.20;;;24.30;99.90;;;;;;7389801;19;20154;-74
2022/06/28 10:57:30;;;;;;;1.30;1.20;;;24.20;99.90;;;;;;7392362;19;20138;-80
2022/06/28 10:59:59;;;;;;;1.48;1.38;;;24.30;99.90;;;;;;7387864;19;20141;-81
2022/06/28 11:02:50;;;;;;;1.45;1.20;;;24.50;99.90;;;;;;7388732;19;20614;-72
2022/06/28 11:05:20;;;;;;;1.17;1.08;;;24.50;99.90;;;;;;7390491;19;20601;-77
2022/06/28 11:07:58;;;;;;;1.50;1.40;;;24.40;99.90;;;;;;7391337;19;20142;-74
2022/06/28 11:10:24;;;;;;;0.98;0.88;;;24.30;99.90;;;;;;7390718;19;20161;-74
2022/06/28 11:12:50;;;;;;;1.92;1.30;;;24.20;99.90;;;;;;7390027;19;20164;-75
2022/06/28 11:15:27;;;;;;;1.05;1.02;;;24.20;99.90;;;;;;7390618;19;20145;-79
2022/06/28 11:17:53;;;;;;;1.45;1.00;;;24.20;99.90;;;;;;7391788;19;20577;-80
2022/06/28 11:20:30;;;;;;;2.00;1.50;;;24.30;99.90;;;;;;7386016;19;20154;-74
2022/06/28 11:22:56;;;;;;;2.72;1.40;;;24.50;99.90;;;;;;7388221;19;20505;-75
2022/06/28 11:25:24;;;;;;;1.67;1.42;;;24.40;99.90;;;;;;7385575;19;20154;-74
2022/06/28 11:27:57;;;;;;;1.70;1.30;;;24.40;99.90;;;;;;7386534;19;20713;-75
2022/06/28 11:30:28;;;;;;;1.08;1.00;;;24.50;99.90;;;;;;7383717;19;20135;-74
2022/06/28 11:32:56;;;;;;;1.20;1.10;;;24.40;99.90;;;;;;7390110;19;20147;-73
2022/06/28 11:35:30;;;;;;;1.70;0.90;;;24.40;99.90;;;;;;7391828;19;20141;-73
2022/06/28 11:37:57;;;;;;;2.38;1.20;;;24.30;99.90;;;;;;7387740;19;20155;-73
2022/06/28 11:40:42;;;;;;;2.35;1.10;;;24.40;99.90;;;;;;7388484;19;20135;-79
2022/06/28 11:43:10;;;;;;;1.08;0.80;;;24.40;99.90;;;;;;7391235;19;20154;-80
2022/06/28 11:45:42;;;;;;;1.65;0.75;;;24.30;99.90;;;;;;7383728;19;20598;-78
2022/06/28 11:48:17;;;;;;;1.85;0.93;;;24.20;99.90;;;;;;7389287;19;20160;-81
2022/06/28 11:50:53;;;;;;;0.70;0.70;;;24.20;99.90;;;;;;7393933;19;20217;-73
2022/06/28 11:53:21;;;;;;;0.93;0.82;;;24.20;99.90;;;;;;7391937;19;20150;-81
2022/06/28 11:55:50;;;;;;;0.95;0.70;;;24.20;99.90;;;;;;7398825;19;20135;-74
2022/06/28 11:58:31;;;;;;;1.60;1.00;;;24.20;99.90;;;;;;7396504;19;20130;-81
2022/06/28 12:01:03;;;;;;;2.50;1.20;;;24.30;99.90;;;;;;7389870;19;20142;-78
2022/06/28 12:03:31;;;;;;;4.13;1.67;;;24.40;99.90;;;;;;7398639;19;20147;-75
2022/06/28 12:05:58;;;;;;;2.20;1.23;;;24.50;99.90;;;;;;7397913;19;20183;-75
2022/06/28 12:08:44;;;;;;;1.33;1.23;;;24.60;99.90;;;;;;7392330;19;20150;-79
2022/06/28 12:11:24;;;;;;;2.78;1.77;;;24.60;99.90;;;;;;7396731;19;20139;-81
2022/06/28 12:14:05;;;;;;;1.23;1.00;;;24.50;99.90;;;;;;7398678;19;20165;-74
2022/06/28 12:16:34;;;;;;;1.10;0.90;;;24.40;99.90;;;;;;7394625;19;20616;-74
2022/06/28 12:19:02;;;;;;;4.03;1.73;;;24.40;99.90;;;;;;7394354;19;20643;-75
2022/06/28 12:21:29;;;;;;;2.40;0.90;;;24.40;99.90;;;;;;7392447;19;20181;-74
2022/06/28 12:23:56;;;;;;;1.00;0.90;;;24.40;99.90;;;;;;7394246;19;20130;-80
2022/06/28 12:26:40;;;;;;;1.23;0.98;;;24.50;99.90;;;;;;7394226;19;20143;-80
2022/06/28 12:29:06;;;;;;;3.55;2.70;;;24.50;99.90;;;;;;7395808;19;20127;-79
2022/06/28 12:31:31;;;;;;;1.88;1.00;;;24.50;99.90;;;;;;7396146;19;20131;-73
2022/06/28 12:33:57;;;;;;;3.67;1.60;;;24.50;99.90;;;;;;7393879;19;20137;-81
2022/06/28 12:36:23;;;;;;;1.65;0.80;;;24.60;99.90;;;;;;7395081;19;20134;-74
2022/06/28 12:38:49;;;;;;;2.30;0.73;;;24.60;99.90;;;;;;7392997;19;20147;-73
2022/06/28 12:41:14;;;;;;;1.73;0.88;;;24.40;99.90;;;;;;7393702;19;20163;-73
2022/06/28 12:43:40;;;;;;;1.90;0.88;;;24.40;99.90;;;;;;7402806;19;20546;-77
2022/06/28 12:46:06;;;;;;;1.95;0.95;;;24.50;99.90;;;;;;7400949;19;20151;-74
2022/06/28 12:48:32;;;;;;;1.15;0.98;;;24.60;99.90;;;;;;7391959;19;20641;-74
2022/06/28 12:50:59;;;;;;;1.38;0.77;;;24.60;99.90;;;;;;7395879;19;20553;-79
2022/06/28 12:53:25;;;;;;;2.13;0.90;;;24.60;99.90;;;;;;7392144;19;20138;-79
2022/06/28 12:55:51;;;;;;;1.33;0.98;;;24.70;99.90;;;;;;7390076;19;20150;-79
2022/06/28 12:58:17;;;;;;;0.80;0.80;;;24.70;99.90;;;;;;7390184;19;20480;-79
2022/06/28 13:00:44;;;;;;;1.75;0.80;;;24.60;99.90;;;;;;7392076;19;20131;-74
2022/06/28 13:03:10;;;;;;;1.25;0.90;;;24.70;99.90;;;;;;7392845;19;20170;-79